createdAt,value
2019-04-27T00:02:36.660Z,9.67
2019-04-27T00:05:06.645Z,9.37
2019-04-27T00:07:51.355Z,9.23
2019-04-27T00:10:28.591Z,8.90
2019-04-27T00:12:57.270Z,9.67
2019-04-27T00:15:32.591Z,8.80
2019-04-27T00:18:18.811Z,9.07
2019-04-27T00:20:53.425Z,9.20
2019-04-27T00:23:23.742Z,9.57
2019-04-27T00:25:52.775Z,9.53
2019-04-27T00:28:22.972Z,9.80
2019-04-27T00:30:53.114Z,9.47
2019-04-27T00:33:23.420Z,10.23
2019-04-27T00:35:53.868Z,10.20
2019-04-27T00:38:33.450Z,11.33
2019-04-27T00:41:06.271Z,9.70
2019-04-27T00:43:34.703Z,10.73
2019-04-27T00:46:04.047Z,10.73
2019-04-27T00:48:33.325Z,10.70
2019-04-27T00:51:01.857Z,11.93
2019-04-27T00:53:30.302Z,11.83
2019-04-27T00:56:03.899Z,11.70
2019-04-27T00:58:37.330Z,11.27
2019-04-27T01:01:15.022Z,11.27
2019-04-27T01:03:44.903Z,10.73
2019-04-27T01:06:14.771Z,11.20
2019-04-27T01:08:44.975Z,10.63
2019-04-27T01:11:14.063Z,11.03
2019-04-27T01:13:43.437Z,10.53
2019-04-27T01:16:13.230Z,10.80
2019-04-27T01:18:42.333Z,10.97
2019-04-27T01:21:10.798Z,10.80
2019-04-27T01:23:39.218Z,10.20
2019-04-27T01:26:36.187Z,10.50
2019-04-27T01:29:10.256Z,10.50
2019-04-27T01:31:39.621Z,10.50
2019-04-27T01:34:09.271Z,10.00
2019-04-27T01:36:39.253Z,10.00
2019-04-27T01:39:10.247Z,9.83
2019-04-27T01:41:39.098Z,9.70
2019-04-27T01:44:09.191Z,9.60
2019-04-27T01:46:39.489Z,8.53
2019-04-27T01:49:09.185Z,8.60
2019-04-27T01:51:39.123Z,8.23
2019-04-27T01:54:10.387Z,8.33
2019-04-27T01:56:39.512Z,8.00
2019-04-27T01:59:08.644Z,7.77
2019-04-27T02:01:55.286Z,7.70
2019-04-27T02:04:25.439Z,8.93
2019-04-27T02:06:55.477Z,7.77
2019-04-27T02:09:24.279Z,8.47
2019-04-27T02:11:52.686Z,8.20
2019-04-27T02:14:21.105Z,8.40
2019-04-27T02:16:49.528Z,8.27
2019-04-27T02:19:19.347Z,8.17
2019-04-27T02:21:49.415Z,7.87
2019-04-27T02:24:18.639Z,7.77
2019-04-27T02:26:47.156Z,7.77
2019-04-27T02:29:32.013Z,8.37
2019-04-27T02:32:20.322Z,7.60
2019-04-27T02:34:50.554Z,8.00
2019-04-27T02:37:20.044Z,7.27
2019-04-27T02:39:50.097Z,7.17
2019-04-27T02:42:25.868Z,7.00
2019-04-27T02:44:54.294Z,6.60
2019-04-27T02:47:22.706Z,7.50
2019-04-27T02:49:51.160Z,6.97
2019-04-27T02:52:30.264Z,7.60
2019-04-27T02:54:59.363Z,7.30
2019-04-27T02:57:30.141Z,7.37
2019-04-27T03:00:00.037Z,7.43
2019-04-27T03:02:32.801Z,7.10
2019-04-27T03:05:01.233Z,7.80
2019-04-27T03:07:30.320Z,7.93
2019-04-27T03:09:59.726Z,7.93
2019-04-27T03:12:30.771Z,8.07
2019-04-27T03:15:00.831Z,8.20
2019-04-27T03:17:36.601Z,8.40
2019-04-27T03:20:12.818Z,8.17
2019-04-27T03:22:42.906Z,8.17
2019-04-27T03:25:15.380Z,8.03
2019-04-27T03:27:45.786Z,8.90
2019-04-27T03:30:15.558Z,8.87
2019-04-27T03:32:44.048Z,9.40
2019-04-27T03:35:13.514Z,8.50
2019-04-27T03:37:42.255Z,8.53
2019-04-27T03:40:10.904Z,9.43
2019-04-27T03:42:41.025Z,10.00
2019-04-27T03:45:10.705Z,9.27
2019-04-27T03:47:40.744Z,9.80
2019-04-27T03:50:11.711Z,8.93
2019-04-27T03:52:59.836Z,9.43
2019-04-27T03:55:42.884Z,9.50
2019-04-27T03:58:24.913Z,9.67
2019-04-27T04:00:54.280Z,9.53
2019-04-27T04:03:22.702Z,10.53
2019-04-27T04:05:51.920Z,9.93
2019-04-27T04:08:20.632Z,10.23
2019-04-27T04:10:53.408Z,11.20
2019-04-27T04:13:35.039Z,10.77
2019-04-27T04:16:07.631Z,11.67
2019-04-27T04:18:52.973Z,12.67
2019-04-27T04:21:21.461Z,13.07
2019-04-27T04:23:49.889Z,13.13
2019-04-27T04:26:19.189Z,14.00
2019-04-27T04:28:49.988Z,14.03
2019-04-27T04:31:20.753Z,13.80
2019-04-27T04:33:49.275Z,14.20
2019-04-27T04:36:19.937Z,14.67
2019-04-27T04:38:50.178Z,14.83
2019-04-27T04:41:22.397Z,14.10
2019-04-27T04:43:52.469Z,16.13
2019-04-27T04:46:31.328Z,15.33
2019-04-27T04:49:00.346Z,15.40
2019-04-27T04:51:30.315Z,16.73
2019-04-27T04:53:59.810Z,15.93
2019-04-27T04:56:29.207Z,16.37
2019-04-27T04:58:59.829Z,16.93
2019-04-27T05:01:29.882Z,16.83
2019-04-27T05:03:59.013Z,17.93
2019-04-27T05:06:29.076Z,18.60
2019-04-27T05:08:59.354Z,18.57
2019-04-27T05:11:29.606Z,17.67
2019-04-27T05:13:59.384Z,18.00
2019-04-27T05:16:28.614Z,18.33
2019-04-27T05:18:57.199Z,18.23
2019-04-27T05:21:31.339Z,17.33
2019-04-27T05:24:00.745Z,17.80
2019-04-27T05:26:29.536Z,17.53
2019-04-27T05:28:59.312Z,17.80
2019-04-27T05:31:29.252Z,18.90
2019-04-27T05:33:59.364Z,19.30
2019-04-27T05:36:29.636Z,19.53
2019-04-27T05:38:59.769Z,19.20
2019-04-27T05:41:31.166Z,19.40
2019-04-27T05:44:03.214Z,18.63
2019-04-27T05:46:46.678Z,18.10
2019-04-27T05:49:25.707Z,18.63
2019-04-27T05:51:54.126Z,19.47
2019-04-27T05:54:22.563Z,18.80
2019-04-27T05:56:50.975Z,19.50
2019-04-27T05:59:19.966Z,19.60
2019-04-27T06:01:49.198Z,19.17
2019-04-27T06:04:19.259Z,20.20
2019-04-27T06:06:49.711Z,19.10
2019-04-27T06:09:19.400Z,20.17
2019-04-27T06:11:50.272Z,19.97
2019-04-27T06:14:19.225Z,19.60
2019-04-27T06:16:51.011Z,20.90
2019-04-27T06:19:19.330Z,20.67
2019-04-27T06:21:49.834Z,21.23
2019-04-27T06:24:18.643Z,20.27
2019-04-27T06:26:47.121Z,21.23
2019-04-27T06:29:15.559Z,20.60
2019-04-27T06:31:43.988Z,20.27
2019-04-27T06:34:12.412Z,20.47
2019-04-27T06:36:40.833Z,19.83
2019-04-27T06:39:09.908Z,19.50
2019-04-27T06:41:40.015Z,19.83
2019-04-27T06:44:11.059Z,19.73
2019-04-27T06:46:40.295Z,19.37
2019-04-27T06:49:10.734Z,19.80
2019-04-27T06:51:40.041Z,19.07
2019-04-27T06:54:09.294Z,18.57
2019-04-27T06:56:38.935Z,19.40
2019-04-27T06:59:08.769Z,18.97
2019-04-27T07:01:38.942Z,19.63
2019-04-27T07:04:08.855Z,18.97
2019-04-27T07:06:52.273Z,20.07
2019-04-27T07:09:09.618Z,19.87
2019-04-27T07:11:39.458Z,18.93
2019-04-27T07:14:11.260Z,20.43
2019-04-27T07:16:39.232Z,20.47
2019-04-27T07:19:09.472Z,18.63
2019-04-27T07:21:39.735Z,17.20
2019-04-27T07:24:08.992Z,19.83
2019-04-27T07:26:39.065Z,21.43
2019-04-27T07:29:09.384Z,20.73
2019-04-27T07:31:39.810Z,22.10
2019-04-27T07:34:09.329Z,21.40
2019-04-27T07:36:39.340Z,21.77
2019-04-27T07:39:09.657Z,22.30
2019-04-27T07:41:38.865Z,22.90
2019-04-27T07:44:11.675Z,23.57
2019-04-27T07:46:40.107Z,25.63
2019-04-27T07:49:09.329Z,26.23
2019-04-27T07:51:39.329Z,26.47
2019-04-27T07:54:08.992Z,26.80
2019-04-27T07:56:39.011Z,28.10
2019-04-27T07:59:09.088Z,29.20
2019-04-27T08:01:39.294Z,27.77
2019-04-27T08:04:09.050Z,27.60
2019-04-27T08:06:38.793Z,26.83
2019-04-27T08:09:09.209Z,27.93
2019-04-27T08:11:39.132Z,27.40
2019-04-27T08:14:08.719Z,28.17
2019-04-27T08:16:38.783Z,29.43
2019-04-27T08:19:07.334Z,27.43
2019-04-27T08:21:43.606Z,27.60
2019-04-27T08:24:06.001Z,28.40
2019-04-27T08:26:39.476Z,28.30
2019-04-27T08:29:21.606Z,27.30
2019-04-27T08:31:54.567Z,27.67
2019-04-27T08:34:36.730Z,26.13
2019-04-27T08:37:05.865Z,26.03
2019-04-27T08:39:34.302Z,26.40
2019-04-27T08:42:02.792Z,26.13
2019-04-27T08:44:31.863Z,27.00
2019-04-27T08:47:00.399Z,28.60
2019-04-27T08:49:29.248Z,26.30
2019-04-27T08:52:01.667Z,26.40
2019-04-27T08:54:29.450Z,26.23
2019-04-27T08:56:59.623Z,22.97
2019-04-27T08:59:29.613Z,25.07
2019-04-27T09:01:58.700Z,24.17
2019-04-27T09:04:28.855Z,24.83
2019-04-27T09:06:59.786Z,23.53
2019-04-27T09:09:29.971Z,23.77
2019-04-27T09:12:16.275Z,24.60
2019-04-27T09:14:46.360Z,23.90
2019-04-27T09:17:19.365Z,22.60
2019-04-27T09:19:49.615Z,22.77
2019-04-27T09:22:19.283Z,22.97
2019-04-27T09:24:49.381Z,21.33
2019-04-27T09:27:19.889Z,21.90
2019-04-27T09:29:49.978Z,20.80
2019-04-27T09:32:19.166Z,22.50
2019-04-27T09:34:47.841Z,20.87
2019-04-27T09:37:16.339Z,21.30
2019-04-27T09:39:46.106Z,20.37
2019-04-27T09:42:16.638Z,21.77
2019-04-27T09:44:45.675Z,19.97
2019-04-27T09:47:16.414Z,21.30
2019-04-27T09:49:46.117Z,19.80
2019-04-27T09:52:24.294Z,19.67
2019-04-27T09:54:44.918Z,19.57
2019-04-27T09:57:13.400Z,19.73
2019-04-27T09:59:41.888Z,16.80
2019-04-27T10:02:10.437Z,15.93
2019-04-27T10:04:38.884Z,16.17
2019-04-27T10:07:07.309Z,16.53
2019-04-27T10:09:36.806Z,15.70
2019-04-27T10:12:07.395Z,15.47
2019-04-27T10:14:36.106Z,13.77
2019-04-27T10:17:04.624Z,14.27
2019-04-27T10:19:33.273Z,16.07
2019-04-27T10:22:01.776Z,15.63
2019-04-27T10:24:30.212Z,15.20
2019-04-27T10:26:58.697Z,15.07
2019-04-27T10:29:27.131Z,14.60
2019-04-27T10:31:56.477Z,15.70
2019-04-27T10:34:24.999Z,14.80
2019-04-27T10:36:53.470Z,14.33
2019-04-27T10:39:21.931Z,13.07
2019-04-27T10:41:50.414Z,13.63
2019-04-27T10:44:18.843Z,14.70
2019-04-27T10:46:47.295Z,12.87
2019-04-27T10:49:15.972Z,14.27
2019-04-27T10:51:45.676Z,11.40
2019-04-27T10:54:14.405Z,12.50
2019-04-27T10:56:42.871Z,11.97
2019-04-27T10:59:11.356Z,12.88
2019-04-27T11:01:39.799Z,13.43
2019-04-27T11:04:21.732Z,12.53
2019-04-27T11:06:51.817Z,13.15
2019-04-27T11:09:20.256Z,13.00
2019-04-27T11:11:48.687Z,13.38
2019-04-27T11:14:17.144Z,14.35
2019-04-27T11:16:46.047Z,13.68
2019-04-27T11:19:16.718Z,11.03
2019-04-27T11:21:44.647Z,12.28
2019-04-27T11:24:13.102Z,12.33
2019-04-27T11:26:41.539Z,11.25
2019-04-27T11:29:09.987Z,12.78
2019-04-27T11:31:38.411Z,12.07
2019-04-27T11:34:06.940Z,11.10
2019-04-27T11:36:37.052Z,10.63
2019-04-27T11:39:11.019Z,10.53
2019-04-27T11:41:39.546Z,11.30
2019-04-27T11:44:08.004Z,9.80
2019-04-27T11:46:36.432Z,11.85
2019-04-27T11:49:06.672Z,12.10
2019-04-27T11:51:36.611Z,9.03
2019-04-27T11:54:05.232Z,6.92
2019-04-27T11:56:33.653Z,5.35
2019-04-27T11:59:02.184Z,5.17
2019-04-27T12:01:32.224Z,4.72
2019-04-27T12:04:00.675Z,4.22
2019-04-27T12:06:29.096Z,3.98
2019-04-27T12:08:57.544Z,5.15
2019-04-27T12:11:26.153Z,4.50
2019-04-27T12:13:56.176Z,4.65
2019-04-27T12:16:26.207Z,3.62
2019-04-27T12:18:56.416Z,4.10
2019-04-27T12:21:25.029Z,3.45
2019-04-27T12:23:53.478Z,3.72
2019-04-27T12:26:32.506Z,4.10
2019-04-27T12:29:02.805Z,3.35
2019-04-27T12:31:32.873Z,4.37
2019-04-27T12:34:01.308Z,4.53
2019-04-27T12:36:29.726Z,9.18
2019-04-27T12:38:58.171Z,4.97
2019-04-27T12:41:26.603Z,5.40
2019-04-27T12:43:56.043Z,5.12
2019-04-27T12:46:24.691Z,5.78
2019-04-27T12:48:54.650Z,5.53
2019-04-27T12:51:23.336Z,5.30
2019-04-27T12:53:53.454Z,5.45
2019-04-27T12:56:39.860Z,5.87
2019-04-27T12:59:12.862Z,5.28
2019-04-27T13:01:41.299Z,5.37
2019-04-27T13:04:09.997Z,4.87
2019-04-27T13:06:38.433Z,5.15
2019-04-27T13:09:07.231Z,4.65
2019-04-27T13:11:36.629Z,5.10
2019-04-27T13:14:06.215Z,5.80
2019-04-27T13:16:34.800Z,4.97
2019-04-27T13:19:03.222Z,4.40
2019-04-27T13:21:31.673Z,4.45
2019-04-27T13:24:04.047Z,4.83
2019-04-27T13:26:30.261Z,4.20
2019-04-27T13:28:58.694Z,3.92
2019-04-27T13:31:27.131Z,3.72
2019-04-27T13:33:55.804Z,3.22
2019-04-27T13:36:26.448Z,3.50
2019-04-27T13:38:55.971Z,3.20
2019-04-27T13:41:30.493Z,3.52
2019-04-27T13:43:55.749Z,3.90
2019-04-27T13:46:26.500Z,3.83
2019-04-27T13:49:02.339Z,3.25
2019-04-27T13:51:32.472Z,3.40
2019-04-27T13:54:00.905Z,3.50
2019-04-27T13:56:29.338Z,3.27
2019-04-27T13:58:58.413Z,3.40
2019-04-27T14:01:26.920Z,3.25
2019-04-27T14:03:55.444Z,3.55
2019-04-27T14:06:23.979Z,3.47
2019-04-27T14:08:52.463Z,3.52
2019-04-27T14:11:20.909Z,3.90
2019-04-27T14:13:49.344Z,3.27
2019-04-27T14:16:18.980Z,3.72
2019-04-27T14:18:48.105Z,3.77
2019-04-27T14:21:16.639Z,3.30
2019-04-27T14:23:45.074Z,2.95
2019-04-27T14:26:13.511Z,3.22
2019-04-27T14:28:42.004Z,2.70
2019-04-27T14:31:10.479Z,3.42
2019-04-27T14:33:39.765Z,2.90
2019-04-27T14:36:08.369Z,4.03
2019-04-27T14:38:36.804Z,4.12
2019-04-27T14:41:05.388Z,2.67
2019-04-27T14:43:33.877Z,2.58
2019-04-27T14:46:02.363Z,2.95
2019-04-27T14:48:30.813Z,2.85
2019-04-27T14:50:59.320Z,2.52
2019-04-27T14:53:28.218Z,3.58
2019-04-27T14:55:58.319Z,2.00
2019-04-27T14:58:28.319Z,1.60
2019-04-27T15:00:58.561Z,1.30
2019-04-27T15:03:27.087Z,1.30
2019-04-27T15:05:55.708Z,1.00
2019-04-27T15:08:25.551Z,1.60
2019-04-27T15:10:54.251Z,1.87
2019-04-27T15:13:22.683Z,1.65
2019-04-27T15:15:51.198Z,1.42
2019-04-27T15:18:19.880Z,1.65
2019-04-27T15:20:48.315Z,1.87
2019-04-27T15:23:16.841Z,1.75
2019-04-27T15:25:46.982Z,1.40
2019-04-27T15:28:19.744Z,2.00
2019-04-27T15:30:52.763Z,2.02
2019-04-27T15:33:29.054Z,1.52
2019-04-27T15:36:19.323Z,1.92
2019-04-27T15:38:47.722Z,1.60
2019-04-27T15:41:24.326Z,1.77
2019-04-27T15:43:51.949Z,2.72
2019-04-27T15:46:20.448Z,2.35
2019-04-27T15:48:48.887Z,1.95
2019-04-27T15:51:21.046Z,2.02
2019-04-27T15:53:50.722Z,2.30
2019-04-27T15:56:18.150Z,3.33
2019-04-27T15:58:48.203Z,6.53
2019-04-27T16:01:18.026Z,2.17
2019-04-27T16:03:48.214Z,2.60
2019-04-27T16:06:21.307Z,2.47
2019-04-27T16:08:49.844Z,2.27
2019-04-27T16:11:19.830Z,2.27
2019-04-27T16:13:48.901Z,2.63
2019-04-27T16:16:18.608Z,2.40
2019-04-27T16:18:48.986Z,1.93
2019-04-27T16:21:19.824Z,1.77
2019-04-27T16:23:48.153Z,2.30
2019-04-27T16:26:18.206Z,2.70
2019-04-27T16:28:52.945Z,2.23
2019-04-27T16:31:18.709Z,1.80
2019-04-27T16:33:49.672Z,1.70
2019-04-27T16:36:19.773Z,2.13
2019-04-27T16:38:49.994Z,2.17
2019-04-27T16:41:18.562Z,2.10
2019-04-27T16:43:48.858Z,1.67
2019-04-27T16:46:19.045Z,1.70
2019-04-27T16:48:47.346Z,2.47
2019-04-27T16:51:15.780Z,2.40
2019-04-27T16:53:44.291Z,2.10
2019-04-27T16:56:15.210Z,2.60
2019-04-27T16:58:42.887Z,1.90
2019-04-27T17:01:25.262Z,1.87
2019-04-27T17:03:53.740Z,3.67
2019-04-27T17:06:22.249Z,2.43
2019-04-27T17:08:50.702Z,3.12
2019-04-27T17:11:19.857Z,3.63
2019-04-27T17:13:52.133Z,2.52
2019-04-27T17:16:33.713Z,2.30
2019-04-27T17:19:09.157Z,2.13
2019-04-27T17:21:41.206Z,2.27
2019-04-27T17:24:09.203Z,2.67
2019-04-27T17:26:41.891Z,2.67
2019-04-27T17:29:16.720Z,2.60
2019-04-27T17:31:44.451Z,2.10
2019-04-27T17:34:12.885Z,3.00
2019-04-27T17:36:41.327Z,2.60
2019-04-27T17:39:10.424Z,2.37
2019-04-27T17:41:42.156Z,2.00
2019-04-27T17:44:12.769Z,2.10
2019-04-27T17:46:42.750Z,2.47
2019-04-27T17:49:09.388Z,2.40
2019-04-27T17:51:40.627Z,2.80
2019-04-27T17:54:11.250Z,2.50
2019-04-27T17:56:48.162Z,2.87
2019-04-27T17:59:10.328Z,3.37
2019-04-27T18:01:38.937Z,2.70
2019-04-27T18:04:10.459Z,2.23
2019-04-27T18:06:39.069Z,2.63
2019-04-27T18:09:09.798Z,3.10
2019-04-27T18:11:38.510Z,4.20
2019-04-27T18:14:11.184Z,3.20
2019-04-27T18:16:38.060Z,3.43
2019-04-27T18:19:23.356Z,4.37
2019-04-27T18:21:56.826Z,3.50
2019-04-27T18:24:26.135Z,3.47
2019-04-27T18:27:12.498Z,3.40
2019-04-27T18:29:40.929Z,2.87
2019-04-27T18:32:09.346Z,2.70
2019-04-27T18:34:38.928Z,3.17
2019-04-27T18:37:07.429Z,3.13
2019-04-27T18:39:35.870Z,2.70
2019-04-27T18:42:04.300Z,3.80
2019-04-27T18:44:32.744Z,2.90
2019-04-27T18:47:02.446Z,1.77
2019-04-27T18:49:32.727Z,2.60
2019-04-27T18:52:18.819Z,1.80
2019-04-27T18:54:47.329Z,1.10
2019-04-27T18:57:16.507Z,0.60
2019-04-27T18:59:44.977Z,0.80
2019-04-27T19:02:13.455Z,0.80
2019-04-27T19:04:41.899Z,0.60
2019-04-27T19:07:10.349Z,0.60
2019-04-27T19:09:38.883Z,0.80
2019-04-27T19:12:07.326Z,0.60
2019-04-27T19:14:35.821Z,0.83
2019-04-27T19:17:04.247Z,0.93
2019-04-27T19:19:32.706Z,1.00
2019-04-27T19:22:01.135Z,0.83
2019-04-27T19:24:29.588Z,0.70
2019-04-27T19:26:59.641Z,0.87
2019-04-27T19:29:29.723Z,0.57
2019-04-27T19:31:59.918Z,0.80
2019-04-27T19:34:28.706Z,0.40
2019-04-27T19:36:59.056Z,0.70
2019-04-27T19:39:28.578Z,0.53
2019-04-27T19:42:01.463Z,0.60
2019-04-27T19:44:28.966Z,0.50
2019-04-27T19:46:57.548Z,0.80
2019-04-27T19:49:26.042Z,0.53
2019-04-27T19:51:54.479Z,0.70
2019-04-27T19:54:22.932Z,0.60
2019-04-27T19:56:51.427Z,0.80
2019-04-27T19:59:24.439Z,0.50
2019-04-27T20:01:54.583Z,0.50
2019-04-27T20:04:27.587Z,0.60
2019-04-27T20:06:56.051Z,0.50
2019-04-27T20:09:38.496Z,0.50
2019-04-27T20:12:09.737Z,0.70
2019-04-27T20:14:55.020Z,0.60
2019-04-27T20:17:25.368Z,0.60
2019-04-27T20:19:54.031Z,0.70
2019-04-27T20:22:24.155Z,0.53
2019-04-27T20:24:52.616Z,0.60
2019-04-27T20:27:21.261Z,0.60
2019-04-27T20:29:49.823Z,0.60
2019-04-27T20:32:18.300Z,0.87
2019-04-27T20:34:46.731Z,0.70
2019-04-27T20:37:15.166Z,0.50
2019-04-27T20:39:43.593Z,0.80
2019-04-27T20:42:12.541Z,1.70
2019-04-27T20:44:41.318Z,0.77
2019-04-27T20:47:10.369Z,0.43
2019-04-27T20:49:38.817Z,0.70
2019-04-27T20:52:10.798Z,0.80
2019-04-27T20:54:39.032Z,0.73
2019-04-27T20:57:07.536Z,0.83
2019-04-27T20:59:35.959Z,0.90
2019-04-27T21:02:06.023Z,1.10
2019-04-27T21:04:36.078Z,0.80
2019-04-27T21:07:06.382Z,0.80
2019-04-27T21:09:34.799Z,1.00
2019-04-27T21:12:03.242Z,1.07
2019-04-27T21:14:31.754Z,0.83
2019-04-27T21:17:01.695Z,0.57
2019-04-27T21:19:31.175Z,1.30
2019-04-27T21:22:01.261Z,0.90
2019-04-27T21:24:31.167Z,0.90
2019-04-27T21:26:59.704Z,1.03
2019-04-27T21:29:28.139Z,2.53
2019-04-27T21:31:56.621Z,1.57
2019-04-27T21:34:25.038Z,1.40
2019-04-27T21:36:53.492Z,1.50
2019-04-27T21:39:21.907Z,1.60
2019-04-27T21:41:51.755Z,1.47
2019-04-27T21:44:21.819Z,1.40
2019-04-27T21:46:51.886Z,1.57
2019-04-27T21:49:22.188Z,1.40
2019-04-27T21:52:04.330Z,1.17
2019-04-27T21:54:41.120Z,1.27
2019-04-27T21:57:11.132Z,1.03
2019-04-27T21:59:39.759Z,1.20
2019-04-27T22:02:11.966Z,1.30
2019-04-27T22:04:41.696Z,1.30
2019-04-27T22:07:11.539Z,1.23
2019-04-27T22:09:43.073Z,1.30
2019-04-27T22:12:11.256Z,1.23
2019-04-27T22:14:39.818Z,1.30
2019-04-27T22:17:08.285Z,1.40
2019-04-27T22:19:36.734Z,1.67
2019-04-27T22:22:06.783Z,1.50
2019-04-27T22:24:36.850Z,1.13
2019-04-27T22:27:05.272Z,1.40
2019-04-27T22:29:33.699Z,1.10
2019-04-27T22:32:02.114Z,1.70
2019-04-27T22:34:31.247Z,1.40
2019-04-27T22:37:00.946Z,1.67
2019-04-27T22:39:31.534Z,1.30
2019-04-27T22:42:16.674Z,1.73
2019-04-27T22:44:46.735Z,2.50
2019-04-27T22:47:15.158Z,1.70
2019-04-27T22:49:43.688Z,1.50
2019-04-27T22:52:12.071Z,1.90
2019-04-27T22:54:42.121Z,2.23
2019-04-27T22:57:12.327Z,2.33
2019-04-27T22:59:42.392Z,2.50
2019-04-27T23:02:29.403Z,2.97
2019-04-27T23:04:59.478Z,3.17
2019-04-27T23:07:28.064Z,3.07
2019-04-27T23:09:56.505Z,3.00
2019-04-27T23:12:25.054Z,2.77
2019-04-27T23:14:53.502Z,2.57
2019-04-27T23:17:23.559Z,2.50
2019-04-27T23:19:52.037Z,3.13
2019-04-27T23:22:21.387Z,2.50
2019-04-27T23:24:51.726Z,2.73
2019-04-27T23:27:21.560Z,2.40
2019-04-27T23:29:51.482Z,2.33
2019-04-27T23:32:23.721Z,2.73
2019-04-27T23:34:51.839Z,2.90
2019-04-27T23:37:20.247Z,2.57
2019-04-27T23:39:48.669Z,2.17
2019-04-27T23:42:17.163Z,2.80
2019-04-27T23:44:45.594Z,2.60
2019-04-27T23:47:14.015Z,2.60
2019-04-27T23:49:42.441Z,2.73
2019-04-27T23:52:18.274Z,2.77
2019-04-27T23:54:46.696Z,2.83
2019-04-27T23:57:15.118Z,2.73
2019-04-27T23:59:43.543Z,3.00
